Time,TemperatureF,DewpointF,PressureIn,WindDirection,WindDirectionDegrees,WindSpeedMPH,WindSpeedGustMPH,Humidity,HourlyPrecipIn,Conditions,Clouds,dailyrainin,SoftwareType,DateUTC
2013-06-26 00:02:00,80.0,66.0,29.53,West,280,3.0,6.0,63,0.00,,,-99.99,,2013-06-26 04:02:00,
2013-06-26 00:22:00,80.0,67.0,29.53,WNW,283,2.0,5.0,65,0.00,,,-99.99,,2013-06-26 04:22:00,
2013-06-26 00:33:00,80.0,67.0,29.53,WNW,283,2.0,5.0,65,0.00,,,-99.99,,2013-06-26 04:33:00,
2013-06-26 00:43:00,76.0,69.0,29.53,WSW,255,1.0,3.0,79,0.00,,,-99.99,,2013-06-26 04:43:00,
2013-06-26 00:53:00,75.0,68.0,29.53,West,279,0.0,2.0,80,0.00,,,-99.99,,2013-06-26 04:53:00,
2013-06-26 01:02:00,76.0,69.0,29.51,West,266,0.0,2.0,80,0.00,,,-99.99,,2013-06-26 05:02:00,
2013-06-26 01:11:00,75.0,69.0,29.50,WSW,246,0.0,1.0,81,0.00,,,-99.99,,2013-06-26 05:11:00,
2013-06-26 01:22:00,75.0,69.0,29.50,WSW,247,0.0,1.0,82,0.00,,,-99.99,,2013-06-26 05:22:00,
2013-06-26 01:34:00,75.0,69.0,29.50,SW,215,1.0,3.0,83,0.00,,,-99.99,,2013-06-26 05:34:00,
2013-06-26 01:43:00,75.0,70.0,29.50,WSW,247,0.0,1.0,84,0.00,,,-99.99,,2013-06-26 05:43:00,
2013-06-26 01:52:00,74.0,69.0,29.50,WSW,247,0.0,0.0,84,0.00,,,-99.99,,2013-06-26 05:52:00,
2013-06-26 02:02:00,74.0,70.0,29.50,WSW,246,0.0,1.0,86,0.00,,,-99.99,,2013-06-26 06:02:00,
2013-06-26 02:11:00,74.0,70.0,29.50,WSW,250,0.0,1.0,86,0.00,,,-99.99,,2013-06-26 06:11:00,
2013-06-26 02:22:00,74.0,70.0,29.50,WSW,250,0.0,1.0,86,0.00,,,-99.99,,2013-06-26 06:22:00,
2013-06-26 02:34:00,74.0,70.0,29.50,WSW,242,0.0,1.0,88,0.00,,,-99.99,,2013-06-26 06:34:00,
2013-06-26 02:44:00,74.0,70.0,29.50,SW,228,1.0,2.0,87,0.00,,,-99.99,,2013-06-26 06:44:00,
2013-06-26 03:11:00,74.0,69.0,29.50,West,264,1.0,3.0,85,0.00,,,-99.99,,2013-06-26 07:11:00,
2013-06-26 03:22:00,74.0,69.0,29.50,West,276,2.0,3.0,85,0.00,,,-99.99,,2013-06-26 07:22:00,
2013-06-26 03:33:00,74.0,69.0,29.50,West,278,2.0,4.0,84,0.00,,,-99.99,,2013-06-26 07:33:00,
2013-06-26 03:43:00,74.0,68.0,29.50,West,273,2.0,4.0,82,0.00,,,-99.99,,2013-06-26 07:43:00,
2013-06-26 03:53:00,74.0,68.0,29.50,West,280,1.0,4.0,82,0.00,,,-99.99,,2013-06-26 07:53:00,
2013-06-26 04:01:00,74.0,67.0,29.50,WNW,290,3.0,5.0,80,0.00,,,-99.99,,2013-06-26 08:01:00,
2013-06-26 04:42:00,74.0,66.0,29.50,WNW,291,3.0,5.0,77,0.00,,,-99.99,,2013-06-26 08:42:00,
2013-06-26 04:52:00,74.0,66.0,29.50,WNW,292,3.0,6.0,77,0.00,,,-99.99,,2013-06-26 08:52:00,
2013-06-26 05:11:00,74.0,66.0,29.50,WNW,296,3.0,5.0,76,0.00,,,-99.99,,2013-06-26 09:11:00,
2013-06-26 05:22:00,74.0,66.0,29.50,WNW,296,3.0,5.0,76,0.00,,,-99.99,,2013-06-26 09:22:00,
2013-06-26 05:43:00,74.0,66.0,29.50,WNW,286,2.0,3.0,77,0.00,,,-99.99,,2013-06-26 09:43:00,
2013-06-26 06:01:00,73.0,67.0,29.51,West,276,1.0,3.0,81,0.00,,,-99.99,,2013-06-26 10:01:00,
2013-06-26 06:12:00,73.0,67.0,29.51,West,276,1.0,3.0,81,0.00,,,-99.99,,2013-06-26 10:12:00,
2013-06-26 07:02:00,74.0,66.0,29.53,WSW,258,1.0,3.0,76,0.00,,,-99.99,,2013-06-26 11:02:00,
2013-06-26 07:12:00,75.0,67.0,29.53,West,261,1.0,3.0,75,0.00,,,-99.99,,2013-06-26 11:12:00,
2013-06-26 07:22:00,77.0,67.0,29.53,West,268,1.0,2.0,72,0.00,,,-99.99,,2013-06-26 11:22:00,
2013-06-26 07:44:00,80.0,67.0,29.53,WNW,295,3.0,5.0,64,0.00,,,-99.99,,2013-06-26 11:44:00,
2013-06-26 07:52:00,82.0,67.0,29.53,WNW,286,2.0,5.0,61,0.00,,,-99.99,,2013-06-26 11:52:00,
2013-06-26 08:02:00,81.0,67.0,29.53,WNW,284,3.0,6.0,62,0.00,,,-99.99,,2013-06-26 12:02:00,
2013-06-26 08:12:00,81.0,66.0,29.53,WNW,290,2.0,4.0,61,0.00,,,-99.99,,2013-06-26 12:12:00,
2013-06-26 08:33:00,83.0,67.0,29.53,WNW,290,3.0,6.0,59,0.00,,,-99.99,,2013-06-26 12:33:00,
2013-06-26 08:43:00,83.0,67.0,29.53,WNW,290,3.0,6.0,59,0.00,,,-99.99,,2013-06-26 12:43:00,
2013-06-26 08:52:00,83.0,66.0,29.53,WNW,293,3.0,6.0,56,0.00,,,-99.99,,2013-06-26 12:52:00,
2013-06-26 09:02:00,85.0,66.0,29.53,WNW,296,2.0,5.0,53,0.00,,,-99.99,,2013-06-26 13:02:00,
2013-06-26 09:11:00,85.0,66.0,29.53,WNW,296,2.0,5.0,53,0.00,,,-99.99,,2013-06-26 13:11:00,
2013-06-26 10:42:00,90.0,68.0,29.53,WNW,287,2.0,4.0,49,0.00,,,-99.99,,2013-06-26 14:42:00,
2013-06-26 10:53:00,90.0,68.0,29.53,WNW,287,2.0,4.0,49,0.00,,,-99.99,,2013-06-26 14:53:00,
2013-06-26 12:11:00,91.0,69.0,29.53,West,270,2.0,4.0,48,0.00,,,-99.99,,2013-06-26 16:11:00,
2013-06-26 13:43:00,86.0,66.0,29.53,WSW,254,2.0,5.0,52,0.00,,,-99.99,,2013-06-26 17:43:00,
2013-06-26 13:52:00,86.0,66.0,29.53,WSW,241,2.0,5.0,52,0.00,,,-99.99,,2013-06-26 17:52:00,
2013-06-26 14:01:00,85.0,66.0,29.53,West,264,2.0,4.0,53,0.00,,,-99.99,,2013-06-26 18:01:00,
2013-06-26 14:34:00,88.0,66.0,29.53,West,263,2.0,4.0,49,0.00,,,-99.99,,2013-06-26 18:34:00,
2013-06-26 14:43:00,88.0,66.0,29.53,West,263,2.0,4.0,49,0.00,,,-99.99,,2013-06-26 18:43:00,
2013-06-26 15:11:00,88.0,67.0,29.53,WSW,251,2.0,4.0,50,0.00,,,-99.99,,2013-06-26 19:11:00,
2013-06-26 15:42:00,87.0,68.0,29.53,WSW,248,2.0,5.0,54,0.00,,,-99.99,,2013-06-26 19:42:00,
2013-06-26 15:52:00,86.0,67.0,29.53,WSW,249,2.0,5.0,53,0.00,,,-99.99,,2013-06-26 19:52:00,
2013-06-26 16:12:00,86.0,67.0,29.53,WSW,249,3.0,5.0,53,0.00,,,-99.99,,2013-06-26 20:12:00,
2013-06-26 16:43:00,86.0,66.0,29.50,WSW,252,2.0,4.0,51,0.00,,,-99.99,,2013-06-26 20:43:00,
2013-06-26 17:02:00,85.0,64.0,29.50,WSW,244,3.0,6.0,50,0.00,,,-99.99,,2013-06-26 21:02:00,
2013-06-26 17:33:00,86.0,66.0,29.50,WSW,246,2.0,5.0,51,0.00,,,-99.99,,2013-06-26 21:33:00,
2013-06-26 17:43:00,86.0,66.0,29.50,WSW,247,2.0,4.0,51,0.00,,,-99.99,,2013-06-26 21:43:00,
2013-06-26 17:52:00,86.0,66.0,29.50,WSW,247,1.0,4.0,51,0.00,,,-99.99,,2013-06-26 21:52:00,
2013-06-26 18:01:00,87.0,67.0,29.50,WSW,252,1.0,3.0,52,0.00,,,-99.99,,2013-06-26 22:01:00,
2013-06-26 18:11:00,87.0,67.0,29.50,WSW,237,1.0,3.0,51,0.00,,,-99.99,,2013-06-26 22:11:00,
2013-06-26 18:22:00,86.0,66.0,29.50,SSW,206,2.0,3.0,52,0.00,,,-99.99,,2013-06-26 22:22:00,
2013-06-26 18:43:00,83.0,68.0,29.51,SW,224,2.0,5.0,60,0.00,,,-99.99,,2013-06-26 22:43:00,
2013-06-26 18:52:00,83.0,68.0,29.51,SW,224,2.0,5.0,60,0.00,,,-99.99,,2013-06-26 22:52:00,
2013-06-26 19:34:00,81.0,66.0,29.50,SSW,208,1.0,3.0,60,0.00,,,-99.99,,2013-06-26 23:34:00,
2013-06-26 19:43:00,80.0,65.0,29.50,SW,233,2.0,6.0,60,0.00,,,-99.99,,2013-06-26 23:43:00,
2013-06-26 19:53:00,80.0,65.0,29.51,WSW,237,1.0,6.0,61,0.00,,,-99.99,,2013-06-26 23:53:00,
2013-06-26 20:01:00,78.0,66.0,29.51,SW,234,1.0,3.0,66,0.00,,,-99.99,,2013-06-27 00:01:00,
2013-06-26 20:12:00,76.0,66.0,29.53,WSW,256,1.0,3.0,72,0.00,,,-99.99,,2013-06-27 00:12:00,
2013-06-26 20:22:00,76.0,66.0,29.53,SW,229,0.0,2.0,71,0.00,,,-99.99,,2013-06-27 00:22:00,
2013-06-26 20:33:00,76.0,66.0,29.52,SW,217,0.0,2.0,72,0.00,,,-99.99,,2013-06-27 00:33:00,
2013-06-26 20:43:00,76.0,66.0,29.52,SSW,211,1.0,3.0,72,0.00,,,-99.99,,2013-06-27 00:43:00,
2013-06-26 20:53:00,76.0,66.0,29.53,WSW,245,1.0,2.0,72,0.00,,,-99.99,,2013-06-27 00:53:00,
2013-06-26 21:01:00,75.0,65.0,29.52,SSW,211,2.0,3.0,72,0.00,,,-99.99,,2013-06-27 01:01:00,
2013-06-26 21:11:00,75.0,65.0,29.52,SSW,211,2.0,3.0,72,0.00,,,-99.99,,2013-06-27 01:11:00,
2013-06-26 21:22:00,75.0,66.0,29.51,SW,225,1.0,4.0,73,0.00,,,-99.99,,2013-06-27 01:22:00,
2013-06-26 21:32:00,74.0,68.0,29.53,SW,223,0.0,1.0,82,0.00,,,-99.99,,2013-06-27 01:32:00,
2013-06-26 21:43:00,74.0,68.0,29.53,SW,214,1.0,1.0,83,0.00,,,-99.99,,2013-06-27 01:43:00,
2013-06-26 21:53:00,73.0,68.0,29.53,SW,217,0.0,2.0,84,0.00,,,-99.99,,2013-06-27 01:53:00,
2013-06-26 22:01:00,73.0,68.0,29.53,SW,221,0.0,2.0,85,0.00,,,-99.99,,2013-06-27 02:01:00,
2013-06-26 22:11:00,73.0,69.0,29.53,SW,220,1.0,2.0,86,0.00,,,-99.99,,2013-06-27 02:11:00,
2013-06-26 22:22:00,73.0,69.0,29.53,SSW,213,1.0,2.0,86,0.00,,,-99.99,,2013-06-27 02:22:00,
2013-06-26 22:32:00,73.0,69.0,29.53,SSW,213,1.0,2.0,86,0.00,,,-99.99,,2013-06-27 02:32:00,
2013-06-26 22:42:00,73.0,69.0,29.53,SSW,213,1.0,2.0,86,0.00,,,-99.99,,2013-06-27 02:42:00,
2013-06-26 22:52:00,73.0,70.0,29.53,SW,216,1.0,4.0,89,0.00,,,-99.99,,2013-06-27 02:52:00,
2013-06-26 23:02:00,73.0,70.0,29.53,SSW,207,2.0,7.0,90,0.00,,,-99.99,,2013-06-27 03:02:00,
2013-06-26 23:11:00,73.0,70.0,29.53,SSW,207,2.0,7.0,90,0.00,,,-99.99,,2013-06-27 03:11:00,
2013-06-26 23:22:00,72.0,69.0,29.53,SW,216,2.0,7.0,91,0.00,,,-99.99,,2013-06-27 03:22:00,
2013-06-26 23:33:00,72.0,69.0,29.53,SW,214,2.0,4.0,91,0.00,,,-99.99,,2013-06-27 03:33:00,
2013-06-26 23:42:00,72.0,69.0,29.53,SW,214,2.0,4.0,91,0.00,,,-99.99,,2013-06-27 03:42:00,